Time;durP1;ratioP1;P1;durP2;ratioP2;P2;SDS_P1;SDS_P2;PMS_P1;PMS_P2;Temp;Humidity;BMP_temperature;BMP_pressure;BME280_temperature;BME280_humidity;BME280_pressure;Samples;Min_cycle;Max_cycle;Signal;HPM_P1;HPM_P2
2022/04/26 03:37:29;;;;;;;3.65;1.67;;;;;;;;;;5001618;28;20250;-15
2022/04/26 03:39:56;;;;;;;4.05;1.80;;;;;;;;;;5005072;28;20706;-15
2022/04/26 03:42:24;;;;;;;2.13;1.63;;;;;;;;;;5000111;28;20239;-15
2022/04/26 03:44:51;;;;;;;1.77;1.60;;;;;;;;;;4999014;28;20232;-15
2022/04/26 03:47:18;;;;;;;1.60;1.50;;;;;;;;;;5001619;28;20236;-15
2022/04/26 03:49:47;;;;;;;1.70;1.60;;;;;;;;;;5002069;28;20232;-15
2022/04/26 03:52:14;;;;;;;2.22;1.60;;;;;;;;;;4998720;28;20246;-15
2022/04/26 03:54:42;;;;;;;2.17;1.70;;;;;;;;;;5002336;28;20696;-15
2022/04/26 03:57:10;;;;;;;2.75;1.88;;;;;;;;;;4994961;28;20224;-15
2022/04/26 03:59:37;;;;;;;2.53;1.67;;;;;;;;;;4998948;28;20232;-16
2022/04/26 04:02:05;;;;;;;3.42;2.00;;;;;;;;;;5002920;28;20232;-15
2022/04/26 04:04:32;;;;;;;4.30;1.70;;;;;;;;;;5005026;28;20240;-15
2022/04/26 04:07:01;;;;;;;2.03;1.50;;;;;;;;;;4999873;28;20227;-15
2022/04/26 04:09:28;;;;;;;1.90;1.60;;;;;;;;;;4999097;28;20244;-15
2022/04/26 04:11:56;;;;;;;2.03;1.65;;;;;;;;;;5003201;28;20226;-15
2022/04/26 04:14:23;;;;;;;3.35;2.13;;;;;;;;;;5003726;28;20258;-17
2022/04/26 04:16:51;;;;;;;2.30;1.60;;;;;;;;;;5008427;28;20255;-16
2022/04/26 04:19:21;;;;;;;2.55;1.80;;;;;;;;;;5002888;28;20236;-17
2022/04/26 04:21:49;;;;;;;2.08;1.70;;;;;;;;;;5003653;28;20251;-15
2022/04/26 04:24:18;;;;;;;3.67;2.05;;;;;;;;;;5002807;28;20240;-16
2022/04/26 04:26:45;;;;;;;3.25;1.88;;;;;;;;;;5005196;28;20241;-15
2022/04/26 04:29:12;;;;;;;2.67;1.80;;;;;;;;;;5002544;28;20695;-16
2022/04/26 04:31:40;;;;;;;3.60;1.85;;;;;;;;;;5005715;28;20236;-16
2022/04/26 04:34:07;;;;;;;3.63;2.00;;;;;;;;;;5002126;28;20341;-16
2022/04/26 04:36:35;;;;;;;1.80;1.70;;;;;;;;;;5004801;28;20238;-15
2022/04/26 04:39:02;;;;;;;2.15;1.50;;;;;;;;;;5002556;28;20239;-16
2022/04/26 04:41:35;;;;;;;3.22;1.63;;;;;;;;;;5004053;28;21087;-16
2022/04/26 04:44:04;;;;;;;3.35;1.63;;;;;;;;;;5002387;28;20319;-16
2022/04/26 04:46:31;;;;;;;2.38;1.70;;;;;;;;;;5007686;28;20236;-16
2022/04/26 04:48:59;;;;;;;2.15;1.67;;;;;;;;;;5002817;28;20243;-16
2022/04/26 04:51:26;;;;;;;2.35;1.60;;;;;;;;;;5003562;28;20729;-16
2022/04/26 04:53:53;;;;;;;1.92;1.40;;;;;;;;;;5001244;28;20799;-16
2022/04/26 04:56:21;;;;;;;2.25;1.70;;;;;;;;;;5000988;28;20240;-16
2022/04/26 04:58:49;;;;;;;2.92;1.70;;;;;;;;;;5004279;28;20234;-16
2022/04/26 05:01:17;;;;;;;2.55;1.20;;;;;;;;;;5006594;28;20588;-16
2022/04/26 05:03:44;;;;;;;2.63;1.55;;;;;;;;;;5001894;28;20228;-16
2022/04/26 05:06:13;;;;;;;2.50;1.50;;;;;;;;;;5004590;28;20235;-16
2022/04/26 05:08:43;;;;;;;2.78;1.55;;;;;;;;;;5001345;28;20267;-16
2022/04/26 05:11:10;;;;;;;3.40;1.77;;;;;;;;;;5003251;28;20232;-16
2022/04/26 05:13:38;;;;;;;2.70;1.58;;;;;;;;;;5001778;28;21002;-16
2022/04/26 05:16:07;;;;;;;2.50;1.40;;;;;;;;;;5002176;28;20244;-16
2022/04/26 05:18:34;;;;;;;2.97;1.23;;;;;;;;;;5004078;28;20235;-16
2022/04/26 05:21:01;;;;;;;2.63;1.67;;;;;;;;;;5001425;28;20231;-16
2022/04/26 05:26:14;;;;;;;1.88;1.42;;;;;;;;;;4997493;28;20578;-16
2022/04/26 05:28:41;;;;;;;2.33;1.40;;;;;;;;;;5004320;28;20236;-16
2022/04/26 05:31:10;;;;;;;2.22;1.60;;;;;;;;;;5001858;28;21056;-16
2022/04/26 05:33:37;;;;;;;1.42;1.33;;;;;;;;;;5001071;28;20691;-16
2022/04/26 05:36:05;;;;;;;1.95;1.45;;;;;;;;;;5003540;28;20232;-16
2022/04/26 05:38:34;;;;;;;2.20;1.35;;;;;;;;;;5001548;28;20232;-16
2022/04/26 05:41:01;;;;;;;2.13;1.40;;;;;;;;;;5003343;28;20228;-16
2022/04/26 05:43:28;;;;;;;2.83;2.00;;;;;;;;;;5004886;28;20245;-16
2022/04/26 05:45:56;;;;;;;2.90;1.88;;;;;;;;;;5002550;28;20231;-15
2022/04/26 05:48:24;;;;;;;2.20;1.30;;;;;;;;;;5004276;28;20216;-15
2022/04/26 05:50:52;;;;;;;2.03;1.73;;;;;;;;;;5002828;28;21029;-15
2022/04/26 05:53:19;;;;;;;2.22;1.55;;;;;;;;;;5001773;28;20232;-15
2022/04/26 05:55:46;;;;;;;2.28;1.70;;;;;;;;;;5004213;28;20229;-15
2022/04/26 05:58:14;;;;;;;2.50;1.67;;;;;;;;;;5004122;28;20228;-15
2022/04/26 06:00:41;;;;;;;3.38;1.60;;;;;;;;;;5003689;28;20218;-16
2022/04/26 06:03:08;;;;;;;2.58;1.80;;;;;;;;;;5000496;28;20240;-16
2022/04/26 06:05:37;;;;;;;3.03;1.88;;;;;;;;;;5004424;28;20319;-15
2022/04/26 06:08:07;;;;;;;2.70;1.80;;;;;;;;;;5003402;28;20232;-16
2022/04/26 06:10:35;;;;;;;4.75;2.05;;;;;;;;;;5000514;28;21105;-16
2022/04/26 06:13:02;;;;;;;3.42;2.22;;;;;;;;;;5002981;28;20215;-16
2022/04/26 06:15:29;;;;;;;4.40;2.08;;;;;;;;;;5002914;28;20226;-15
2022/04/26 06:17:57;;;;;;;3.95;2.05;;;;;;;;;;5001971;28;20235;-16
2022/04/26 06:20:25;;;;;;;3.47;1.90;;;;;;;;;;5001793;28;20711;-15
2022/04/26 06:22:54;;;;;;;3.00;2.20;;;;;;;;;;5001267;28;20634;-16
2022/04/26 06:25:21;;;;;;;4.35;2.40;;;;;;;;;;5000829;28;20220;-15
2022/04/26 06:27:49;;;;;;;4.60;2.05;;;;;;;;;;4999343;28;20235;-15
2022/04/26 06:30:23;;;;;;;3.88;2.60;;;;;;;;;;5003712;28;21022;-15
2022/04/26 06:32:50;;;;;;;3.97;2.00;;;;;;;;;;5002207;28;20238;-16
2022/04/26 06:35:17;;;;;;;2.97;2.10;;;;;;;;;;5000247;28;21034;-16
2022/04/26 06:37:45;;;;;;;3.20;1.88;;;;;;;;;;5003226;28;20330;-16
2022/04/26 06:40:13;;;;;;;2.50;2.00;;;;;;;;;;5003818;28;20239;-15
2022/04/26 06:42:41;;;;;;;3.08;2.13;;;;;;;;;;5000057;28;20236;-16
2022/04/26 06:45:08;;;;;;;3.30;2.05;;;;;;;;;;5000267;28;20264;-15
2022/04/26 06:47:37;;;;;;;3.22;2.28;;;;;;;;;;5003179;28;20227;-16
2022/04/26 06:50:04;;;;;;;3.03;1.92;;;;;;;;;;5002954;28;20719;-16
2022/04/26 06:52:32;;;;;;;3.80;2.35;;;;;;;;;;5003394;28;20224;-16
2022/04/26 06:55:00;;;;;;;3.30;2.15;;;;;;;;;;5000697;28;20726;-15
2022/04/26 06:57:28;;;;;;;6.47;2.72;;;;;;;;;;5001909;28;20227;-15
2022/04/26 06:59:56;;;;;;;3.58;2.53;;;;;;;;;;4998902;28;20238;-16
2022/04/26 07:02:23;;;;;;;4.63;2.53;;;;;;;;;;5003185;28;20254;-16
2022/04/26 07:04:51;;;;;;;4.57;2.28;;;;;;;;;;5001756;28;20230;-15
2022/04/26 07:07:18;;;;;;;3.95;2.25;;;;;;;;;;5000740;28;20766;-15
2022/04/26 07:09:46;;;;;;;2.83;2.15;;;;;;;;;;5002324;28;20250;-15
2022/04/26 07:12:13;;;;;;;4.18;2.10;;;;;;;;;;5003570;28;20238;-15
2022/04/26 07:14:42;;;;;;;4.15;2.40;;;;;;;;;;4998911;28;20311;-16
2022/04/26 07:17:10;;;;;;;4.13;2.40;;;;;;;;;;5000712;28;20240;-15
2022/04/26 07:19:37;;;;;;;3.78;1.98;;;;;;;;;;4999708;28;20220;-15
2022/04/26 07:22:25;;;;;;;3.28;2.20;;;;;;;;;;5001774;28;20251;-16
2022/04/26 07:24:52;;;;;;;4.15;2.55;;;;;;;;;;5001703;28;20318;-15
2022/04/26 07:27:20;;;;;;;3.05;2.20;;;;;;;;;;5000710;28;20597;-16
2022/04/26 07:29:50;;;;;;;4.15;2.30;;;;;;;;;;5001742;28;20247;-16
2022/04/26 07:32:17;;;;;;;4.10;2.33;;;;;;;;;;5001150;28;20220;-16
2022/04/26 07:34:45;;;;;;;4.32;2.60;;;;;;;;;;5002511;28;20322;-15
2022/04/26 07:37:12;;;;;;;4.82;2.45;;;;;;;;;;5002791;28;20242;-16
2022/04/26 07:39:41;;;;;;;3.80;2.17;;;;;;;;;;5002460;28;20231;-16
2022/04/26 07:42:09;;;;;;;3.50;2.25;;;;;;;;;;4999386;28;20217;-15
2022/04/26 07:44:39;;;;;;;3.08;2.25;;;;;;;;;;5003397;28;20330;-16
2022/04/26 07:47:08;;;;;;;4.97;2.45;;;;;;;;;;5003856;28;20236;-16
2022/04/26 07:49:35;;;;;;;3.55;2.33;;;;;;;;;;5005694;28;20230;-16
2022/04/26 07:52:04;;;;;;;3.42;2.00;;;;;;;;;;5003111;28;21023;-15
2022/04/26 07:54:31;;;;;;;6.97;2.53;;;;;;;;;;5004250;28;20232;-15
2022/04/26 07:56:58;;;;;;;4.90;2.15;;;;;;;;;;5003385;28;20258;-16
2022/04/26 07:59:28;;;;;;;3.35;2.35;;;;;;;;;;5004184;28;20323;-15
2022/04/26 08:01:56;;;;;;;3.90;2.42;;;;;;;;;;5004686;28;20228;-16
2022/04/26 08:04:25;;;;;;;3.78;2.25;;;;;;;;;;5003524;28;20225;-16
2022/04/26 08:06:53;;;;;;;4.40;2.40;;;;;;;;;;5004721;28;20228;-16
2022/04/26 08:09:20;;;;;;;4.30;2.45;;;;;;;;;;5006634;28;20758;-15
2022/04/26 08:11:49;;;;;;;2.95;2.20;;;;;;;;;;5003008;28;20741;-15
2022/04/26 08:14:16;;;;;;;3.05;2.28;;;;;;;;;;5004801;28;20693;-16
2022/04/26 08:16:44;;;;;;;5.43;2.63;;;;;;;;;;5006031;28;20235;-16
2022/04/26 08:19:11;;;;;;;5.38;2.53;;;;;;;;;;5002080;28;20232;-15
2022/04/26 08:21:40;;;;;;;5.55;2.50;;;;;;;;;;5001174;28;20251;-16
2022/04/26 08:29:37;;;;;;;3.28;2.10;;;;;;;;;;5001711;28;20234;-15
2022/04/26 08:32:05;;;;;;;3.42;2.38;;;;;;;;;;5005799;28;20236;-15
2022/04/26 08:34:33;;;;;;;5.40;2.47;;;;;;;;;;5004516;28;20315;-16
2022/04/26 08:37:02;;;;;;;3.85;2.33;;;;;;;;;;5002704;28;20246;-16
2022/04/26 08:39:29;;;;;;;3.83;2.13;;;;;;;;;;5001621;28;20238;-16
2022/04/26 08:41:57;;;;;;;3.92;2.40;;;;;;;;;;5008712;28;20222;-16
2022/04/26 08:44:26;;;;;;;9.10;3.38;;;;;;;;;;5003599;28;20235;-18
2022/04/26 08:52:24;;;;;;;7.28;4.32;;;;;;;;;;5003728;28;20235;-18
2022/04/26 08:54:51;;;;;;;5.53;2.85;;;;;;;;;;5000100;28;20788;-17
2022/04/26 08:57:19;;;;;;;10.23;3.25;;;;;;;;;;5003179;28;21498;-18
2022/04/26 08:59:46;;;;;;;8.98;3.17;;;;;;;;;;5003547;28;20231;-18
2022/04/26 09:02:14;;;;;;;9.15;3.10;;;;;;;;;;5001614;28;20426;-18
2022/04/26 09:04:42;;;;;;;9.25;3.33;;;;;;;;;;5007691;28;20710;-18
2022/04/26 09:07:10;;;;;;;11.02;3.42;;;;;;;;;;4998317;28;20247;-18
2022/04/26 09:09:40;;;;;;;11.68;3.20;;;;;;;;;;5002719;28;20229;-18
2022/04/26 09:12:10;;;;;;;8.40;2.92;;;;;;;;;;4999016;28;21040;-18
2022/04/26 09:14:39;;;;;;;5.75;2.65;;;;;;;;;;5005879;28;20965;-18
2022/04/26 09:17:07;;;;;;;10.30;3.10;;;;;;;;;;5001128;28;20245;-19
2022/04/26 09:19:45;;;;;;;15.60;3.70;;;;;;;;;;5001735;28;20438;-18
2022/04/26 09:22:16;;;;;;;13.93;2.90;;;;;;;;;;4999240;28;20275;-19
2022/04/26 09:24:57;;;;;;;17.73;3.63;;;;;;;;;;4997659;28;20255;-18
2022/04/26 09:27:24;;;;;;;10.23;3.28;;;;;;;;;;4996987;28;20457;-19
2022/04/26 09:29:52;;;;;;;9.23;3.58;;;;;;;;;;5006259;28;21015;-19
2022/04/26 09:32:19;;;;;;;11.85;3.00;;;;;;;;;;5003341;28;20247;-18
2022/04/26 09:34:47;;;;;;;13.45;3.85;;;;;;;;;;4997136;28;20240;-18
2022/04/26 09:37:16;;;;;;;10.05;2.72;;;;;;;;;;5000595;28;21604;-19
2022/04/26 09:39:58;;;;;;;7.82;2.83;;;;;;;;;;4996744;28;20240;-18
2022/04/26 09:42:31;;;;;;;11.77;2.83;;;;;;;;;;5005733;28;20239;-18
2022/04/26 09:45:03;;;;;;;11.00;2.70;;;;;;;;;;5001066;28;20245;-19
2022/04/26 09:47:35;;;;;;;10.30;2.83;;;;;;;;;;5000546;28;20306;-19
2022/04/26 09:50:04;;;;;;;4.40;2.40;;;;;;;;;;4996112;28;20244;-18
2022/04/26 09:52:32;;;;;;;8.52;2.80;;;;;;;;;;5005783;28;20251;-18
2022/04/26 09:55:00;;;;;;;5.70;2.72;;;;;;;;;;4997566;28;20228;-18
2022/04/26 09:57:28;;;;;;;11.15;2.72;;;;;;;;;;4999996;28;21051;-18
2022/04/26 10:00:08;;;;;;;5.30;2.22;;;;;;;;;;5003025;28;20413;-18
2022/04/26 10:02:35;;;;;;;7.30;2.88;;;;;;;;;;5000303;28;20240;-19
2022/04/26 10:05:04;;;;;;;6.90;2.45;;;;;;;;;;5002442;28;21015;-19
2022/04/26 10:07:33;;;;;;;5.97;2.70;;;;;;;;;;5008158;28;20282;-18
2022/04/26 10:10:00;;;;;;;5.13;2.78;;;;;;;;;;5000879;28;20988;-19
2022/04/26 10:12:27;;;;;;;7.72;3.20;;;;;;;;;;4997115;28;20243;-18
2022/04/26 10:14:55;;;;;;;5.60;2.58;;;;;;;;;;5001336;28;20228;-19
2022/04/26 10:17:24;;;;;;;8.57;2.65;;;;;;;;;;5002098;28;20235;-18
2022/04/26 10:19:51;;;;;;;7.32;2.60;;;;;;;;;;4998840;28;21088;-18
2022/04/26 10:22:36;;;;;;;5.15;2.47;;;;;;;;;;4998837;28;20274;-18
2022/04/26 10:25:11;;;;;;;4.63;2.42;;;;;;;;;;5001644;28;20231;-18
2022/04/26 10:27:40;;;;;;;5.55;2.42;;;;;;;;;;4996583;28;20246;-18
2022/04/26 10:30:07;;;;;;;12.15;2.53;;;;;;;;;;5000358;28;20354;-18
2022/04/26 10:32:38;;;;;;;13.20;2.42;;;;;;;;;;5003279;28;20254;-19
2022/04/26 10:35:27;;;;;;;6.45;2.47;;;;;;;;;;4996749;28;20231;-18
2022/04/26 10:38:08;;;;;;;3.22;2.17;;;;;;;;;;4995950;28;21044;-19
2022/04/26 10:40:51;;;;;;;6.22;2.58;;;;;;;;;;5004866;28;20726;-18
2022/04/26 10:43:18;;;;;;;8.43;2.30;;;;;;;;;;5001719;28;20254;-19
2022/04/26 10:46:00;;;;;;;5.90;2.20;;;;;;;;;;4997802;28;20236;-18
2022/04/26 10:48:29;;;;;;;4.38;2.45;;;;;;;;;;5001668;28;20227;-18
2022/04/26 10:50:56;;;;;;;5.18;2.85;;;;;;;;;;5000496;28;20239;-18
2022/04/26 10:53:45;;;;;;;9.48;3.15;;;;;;;;;;5003434;28;21090;-19
2022/04/26 10:56:12;;;;;;;6.82;2.78;;;;;;;;;;4997037;28;21135;-18
2022/04/26 10:58:50;;;;;;;8.98;3.05;;;;;;;;;;4999413;28;20236;-19
2022/04/26 11:01:17;;;;;;;5.22;2.80;;;;;;;;;;5001000;28;20781;-18
2022/04/26 11:03:53;;;;;;;11.20;2.83;;;;;;;;;;5003005;28;20330;-19
2022/04/26 11:06:31;;;;;;;10.15;2.90;;;;;;;;;;4999299;28;20429;-18
2022/04/26 11:09:06;;;;;;;15.18;3.10;;;;;;;;;;4999621;28;20238;-19
2022/04/26 11:11:46;;;;;;;12.75;3.28;;;;;;;;;;4996725;28;20428;-19
2022/04/26 11:14:17;;;;;;;6.88;2.75;;;;;;;;;;5003187;28;20236;-19
2022/04/26 11:16:54;;;;;;;12.82;3.03;;;;;;;;;;4999512;28;20246;-19
2022/04/26 11:19:27;;;;;;;13.25;2.53;;;;;;;;;;4998913;28;20241;-19
2022/04/26 11:21:54;;;;;;;5.65;2.47;;;;;;;;;;5001639;28;20243;-20
2022/04/26 11:29:52;;;;;;;4.72;2.28;;;;;;;;;;5005120;28;20238;-19
2022/04/26 11:32:29;;;;;;;6.35;2.50;;;;;;;;;;5005799;28;20831;-20
2022/04/26 11:34:57;;;;;;;9.30;2.60;;;;;;;;;;5003903;28;20238;-19
2022/04/26 11:37:25;;;;;;;12.18;2.50;;;;;;;;;;5004437;28;20227;-16
2022/04/26 11:39:52;;;;;;;7.57;2.58;;;;;;;;;;5004825;28;20229;-16
2022/04/26 11:42:20;;;;;;;4.57;2.30;;;;;;;;;;5006494;28;20229;-16
2022/04/26 11:44:57;;;;;;;6.50;2.30;;;;;;;;;;5002290;28;20214;-16
2022/04/26 11:47:36;;;;;;;7.78;2.70;;;;;;;;;;5005787;28;20262;-16
2022/04/26 11:50:09;;;;;;;12.15;2.42;;;;;;;;;;5008912;28;20710;-16
2022/04/26 11:52:36;;;;;;;3.80;2.10;;;;;;;;;;5001660;28;20248;-16
2022/04/26 11:55:06;;;;;;;5.15;2.30;;;;;;;;;;5005335;28;20330;-16
2022/04/26 11:57:33;;;;;;;11.18;2.63;;;;;;;;;;5005421;28;20763;-16
2022/04/26 12:00:01;;;;;;;5.85;2.58;;;;;;;;;;5004427;28;20220;-16
2022/04/26 12:02:29;;;;;;;3.00;2.10;;;;;;;;;;5006900;28;20223;-16
2022/04/26 12:04:57;;;;;;;4.75;2.45;;;;;;;;;;5004501;28;20291;-16
2022/04/26 12:07:26;;;;;;;5.22;2.65;;;;;;;;;;5008712;28;20221;-16
2022/04/26 12:09:53;;;;;;;3.22;2.00;;;;;;;;;;5005649;28;20236;-16
2022/04/26 12:12:20;;;;;;;6.55;2.28;;;;;;;;;;5004583;28;20230;-16
2022/04/26 12:14:48;;;;;;;5.38;2.10;;;;;;;;;;5003528;28;20228;-16
2022/04/26 12:17:16;;;;;;;7.40;2.63;;;;;;;;;;5004864;28;20231;-16
2022/04/26 12:19:45;;;;;;;7.90;3.05;;;;;;;;;;5005383;28;20971;-16
2022/04/26 12:22:12;;;;;;;8.95;2.53;;;;;;;;;;5001441;28;21214;-16
2022/04/26 12:24:47;;;;;;;4.95;1.98;;;;;;;;;;5005588;28;20242;-16
2022/04/26 12:27:15;;;;;;;4.55;1.92;;;;;;;;;;5005757;28;20225;-16
2022/04/26 12:29:43;;;;;;;2.88;2.20;;;;;;;;;;5005530;28;20235;-17
2022/04/26 12:32:10;;;;;;;4.55;2.55;;;;;;;;;;5007066;28;20238;-17
2022/04/26 12:34:46;;;;;;;3.92;2.00;;;;;;;;;;5001536;28;20228;-17
2022/04/26 12:37:16;;;;;;;5.10;2.13;;;;;;;;;;5009650;28;20231;-17
2022/04/26 12:39:44;;;;;;;6.05;2.50;;;;;;;;;;5007905;28;20984;-17
2022/04/26 12:42:13;;;;;;;5.13;2.30;;;;;;;;;;5007855;28;20417;-17
2022/04/26 12:44:58;;;;;;;5.10;2.42;;;;;;;;;;5009008;28;20436;-17
2022/04/26 12:50:31;;;;;;;8.93;2.10;;;;;;;;;;5008694;28;20243;-17
2022/04/26 12:52:59;;;;;;;4.00;1.90;;;;;;;;;;5004079;28;20239;-17
2022/04/26 12:55:27;;;;;;;5.97;2.03;;;;;;;;;;5009048;28;20227;-17
2022/04/26 12:57:56;;;;;;;4.03;2.15;;;;;;;;;;5007756;28;20237;-17
2022/04/26 13:00:24;;;;;;;6.70;2.25;;;;;;;;;;5005425;28;20224;-17
2022/04/26 13:02:52;;;;;;;3.05;1.85;;;;;;;;;;5008873;28;20242;-17
2022/04/26 13:05:21;;;;;;;3.17;1.70;;;;;;;;;;5001389;28;20334;-17
2022/04/26 13:07:48;;;;;;;3.90;2.33;;;;;;;;;;5001491;28;20307;-17
2022/04/26 13:10:15;;;;;;;4.43;2.15;;;;;;;;;;5000285;28;20227;-17
2022/04/26 13:12:43;;;;;;;5.35;2.05;;;;;;;;;;5001762;28;20227;-17
2022/04/26 13:15:13;;;;;;;3.38;1.95;;;;;;;;;;5001750;28;20236;-17
2022/04/26 13:17:40;;;;;;;3.25;2.20;;;;;;;;;;5001522;28;20224;-17
2022/04/26 13:20:08;;;;;;;8.65;2.10;;;;;;;;;;5001013;28;20252;-17
2022/04/26 13:22:35;;;;;;;4.57;2.05;;;;;;;;;;5000814;28;20248;-17
2022/04/26 13:25:04;;;;;;;3.25;2.33;;;;;;;;;;5001020;28;20235;-17
2022/04/26 13:27:31;;;;;;;3.28;2.08;;;;;;;;;;5003821;28;20216;-17
2022/04/26 13:29:59;;;;;;;5.03;1.92;;;;;;;;;;5000104;28;20327;-17
2022/04/26 13:32:29;;;;;;;2.90;2.08;;;;;;;;;;5003557;28;20291;-17
2022/04/26 13:34:57;;;;;;;3.17;1.90;;;;;;;;;;5002452;28;20245;-17
2022/04/26 13:37:29;;;;;;;4.70;2.20;;;;;;;;;;5004114;28;21095;-17
2022/04/26 13:39:58;;;;;;;5.47;2.10;;;;;;;;;;5002683;28;20235;-17
2022/04/26 13:42:27;;;;;;;6.07;2.00;;;;;;;;;;5003479;28;20223;-17
2022/04/26 13:44:55;;;;;;;2.42;1.85;;;;;;;;;;5001438;28;20711;-17
2022/04/26 13:47:22;;;;;;;3.65;1.98;;;;;;;;;;5006744;28;20231;-17
2022/04/26 13:49:51;;;;;;;5.07;1.58;;;;;;;;;;5002227;28;20224;-17
2022/04/26 13:52:20;;;;;;;3.08;1.90;;;;;;;;;;5000462;28;20231;-17
2022/04/26 13:54:47;;;;;;;2.47;1.70;;;;;;;;;;5003690;28;20242;-17
2022/04/26 13:57:15;;;;;;;3.67;1.90;;;;;;;;;;5000897;28;20243;-17
2022/04/26 13:59:42;;;;;;;3.03;1.90;;;;;;;;;;5004187;28;20227;-17
2022/04/26 14:02:11;;;;;;;2.90;1.85;;;;;;;;;;5001662;28;20232;-17
2022/04/26 14:04:38;;;;;;;2.63;2.25;;;;;;;;;;5004803;28;20232;-17
2022/04/26 14:07:07;;;;;;;2.83;1.83;;;;;;;;;;5000662;28;20225;-17
2022/04/26 14:09:35;;;;;;;3.72;1.98;;;;;;;;;;5003632;28;20239;-17
2022/04/26 14:12:04;;;;;;;2.90;1.80;;;;;;;;;;5001113;28;20252;-17
2022/04/26 14:22:47;;;;;;;2.72;2.03;;;;;;;;;;4999989;28;20279;-17
2022/04/26 14:25:14;;;;;;;5.32;1.98;;;;;;;;;;5003233;28;20247;-17
2022/04/26 14:27:42;;;;;;;2.83;1.98;;;;;;;;;;5000731;28;20707;-17
2022/04/26 14:30:10;;;;;;;2.85;1.80;;;;;;;;;;4999627;28;20224;-17
2022/04/26 14:32:57;;;;;;;3.25;2.00;;;;;;;;;;5000053;28;20254;-17
2022/04/26 14:35:25;;;;;;;1.92;1.50;;;;;;;;;;5002053;28;20841;-17
2022/04/26 14:37:54;;;;;;;2.90;1.98;;;;;;;;;;5002034;28;20231;-17
2022/04/26 14:40:22;;;;;;;2.35;1.70;;;;;;;;;;5001218;28;20994;-17
2022/04/26 14:42:50;;;;;;;3.03;1.83;;;;;;;;;;5004445;28;20235;-17
2022/04/26 14:45:18;;;;;;;2.22;1.73;;;;;;;;;;5002785;28;20236;-17
2022/04/26 14:47:45;;;;;;;3.25;2.10;;;;;;;;;;5003973;28;20282;-17
2022/04/26 14:50:13;;;;;;;3.53;2.08;;;;;;;;;;5003767;28;20219;-17
2022/04/26 14:52:41;;;;;;;2.60;1.80;;;;;;;;;;5003482;28;20687;-17
2022/04/26 14:55:10;;;;;;;2.15;1.95;;;;;;;;;;5003393;28;20237;-17
2022/04/26 14:57:38;;;;;;;3.00;1.92;;;;;;;;;;4999264;28;20331;-17
2022/04/26 15:00:06;;;;;;;3.15;1.90;;;;;;;;;;5002934;28;20225;-17
2022/04/26 15:02:38;;;;;;;3.10;1.63;;;;;;;;;;5004260;28;20789;-17
2022/04/26 15:05:08;;;;;;;2.42;1.70;;;;;;;;;;5003108;28;21169;-17
2022/04/26 15:10:18;;;;;;;2.55;1.85;;;;;;;;;;5000516;28;20319;-17
2022/04/26 15:18:17;;;;;;;2.05;1.70;;;;;;;;;;5000010;28;20742;-17
2022/04/26 15:20:50;;;;;;;2.30;1.77;;;;;;;;;;5002828;28;20227;-17
2022/04/26 15:23:18;;;;;;;3.33;1.88;;;;;;;;;;4999915;28;20244;-17
2022/04/26 15:25:50;;;;;;;2.15;1.60;;;;;;;;;;5003070;28;20293;-17
2022/04/26 15:28:18;;;;;;;3.88;1.83;;;;;;;;;;5000567;28;20228;-17
2022/04/26 15:30:46;;;;;;;3.53;2.20;;;;;;;;;;5003612;28;20315;-17
2022/04/26 15:33:13;;;;;;;2.85;1.73;;;;;;;;;;5000042;28;20220;-17
2022/04/26 15:35:42;;;;;;;2.17;1.60;;;;;;;;;;5003018;28;20625;-17
2022/04/26 15:38:12;;;;;;;2.47;1.65;;;;;;;;;;5003287;28;21060;-17
2022/04/26 15:40:39;;;;;;;3.13;1.95;;;;;;;;;;4999572;28;20330;-17
2022/04/26 15:43:08;;;;;;;1.95;1.60;;;;;;;;;;4999619;28;20216;-17
2022/04/26 15:45:36;;;;;;;1.92;1.55;;;;;;;;;;5003668;28;20235;-17
2022/04/26 15:48:03;;;;;;;1.92;1.50;;;;;;;;;;5002834;28;20227;-17
2022/04/26 15:50:30;;;;;;;3.50;1.65;;;;;;;;;;5000492;28;20679;-17
2022/04/26 15:52:58;;;;;;;2.72;1.70;;;;;;;;;;5001592;28;20236;-17
2022/04/26 15:55:25;;;;;;;3.42;1.67;;;;;;;;;;5001313;28;20624;-17
2022/04/26 15:57:53;;;;;;;2.25;1.55;;;;;;;;;;5000449;28;20243;-17
2022/04/26 16:00:22;;;;;;;2.30;1.80;;;;;;;;;;5001939;28;20729;-17
2022/04/26 16:02:51;;;;;;;3.40;1.60;;;;;;;;;;4997874;28;20228;-17
2022/04/26 16:05:18;;;;;;;2.15;1.90;;;;;;;;;;5001519;28;20247;-17
2022/04/26 16:07:46;;;;;;;3.22;1.60;;;;;;;;;;4999820;28;20239;-17
2022/04/26 16:21:11;;;;;;;4.53;1.75;;;;;;;;;;5006242;28;20338;-17
2022/04/26 16:23:38;;;;;;;1.70;1.60;;;;;;;;;;5002473;28;20228;-17
2022/04/26 16:26:07;;;;;;;2.22;1.67;;;;;;;;;;5006699;28;21749;-17
2022/04/26 16:28:35;;;;;;;2.30;1.52;;;;;;;;;;5004733;28;20346;-17
2022/04/26 16:31:04;;;;;;;2.72;1.70;;;;;;;;;;5003919;28;20228;-17
2022/04/26 16:33:32;;;;;;;2.58;1.90;;;;;;;;;;5005192;28;20240;-17
2022/04/26 16:35:59;;;;;;;2.65;1.83;;;;;;;;;;5003075;28;20242;-17
2022/04/26 16:38:26;;;;;;;3.50;2.20;;;;;;;;;;5003964;28;20228;-17
2022/04/26 16:40:55;;;;;;;2.10;1.40;;;;;;;;;;5004344;28;21006;-17
2022/04/26 16:43:22;;;;;;;1.90;1.75;;;;;;;;;;5007901;28;20231;-17
2022/04/26 16:45:50;;;;;;;2.13;1.30;;;;;;;;;;5005295;28;20235;-17
2022/04/26 16:48:25;;;;;;;2.67;1.40;;;;;;;;;;5003737;28;20248;-17
2022/04/26 16:50:52;;;;;;;2.08;1.80;;;;;;;;;;5003719;28;20977;-17
2022/04/26 16:53:20;;;;;;;3.00;1.42;;;;;;;;;;5001698;28;20230;-17
2022/04/26 16:55:47;;;;;;;1.83;1.48;;;;;;;;;;5001629;28;20240;-17
2022/04/26 16:58:16;;;;;;;1.85;1.50;;;;;;;;;;5002307;28;20216;-17
2022/04/26 17:00:44;;;;;;;1.55;1.30;;;;;;;;;;5006096;28;20242;-17
2022/04/26 17:03:14;;;;;;;1.60;1.48;;;;;;;;;;5001922;28;20259;-17
2022/04/26 17:05:45;;;;;;;2.50;1.27;;;;;;;;;;5005415;28;20241;-17
2022/04/26 17:08:12;;;;;;;2.80;1.67;;;;;;;;;;5001850;28;20222;-17
2022/04/26 17:10:40;;;;;;;1.95;1.58;;;;;;;;;;5002004;28;20216;-17
2022/04/26 17:13:07;;;;;;;2.78;1.60;;;;;;;;;;5001509;28;20700;-17
2022/04/26 17:15:34;;;;;;;3.22;1.77;;;;;;;;;;5004671;28;20744;-17
2022/04/26 17:18:02;;;;;;;3.75;1.85;;;;;;;;;;5004363;28;20304;-17
2022/04/26 17:20:33;;;;;;;1.83;1.30;;;;;;;;;;5002538;28;20240;-17
2022/04/26 17:23:01;;;;;;;2.78;1.70;;;;;;;;;;5003229;28;20254;-17
2022/04/26 17:25:29;;;;;;;3.15;1.70;;;;;;;;;;5004770;28;20232;-17
2022/04/26 17:28:10;;;;;;;2.53;1.50;;;;;;;;;;5001405;28;20651;-17
2022/04/26 17:30:38;;;;;;;2.63;1.50;;;;;;;;;;4998252;28;20350;-17
2022/04/26 17:33:05;;;;;;;3.38;1.92;;;;;;;;;;5001512;28;21113;-17
2022/04/26 17:35:33;;;;;;;2.00;1.60;;;;;;;;;;5004072;28;20384;-17
2022/04/26 17:38:01;;;;;;;2.95;1.75;;;;;;;;;;5004648;28;20232;-17
2022/04/26 17:40:29;;;;;;;2.15;1.77;;;;;;;;;;5002432;28;20311;-17
2022/04/26 17:42:56;;;;;;;2.38;1.95;;;;;;;;;;5002597;28;21048;-17
2022/04/26 17:45:24;;;;;;;1.90;1.58;;;;;;;;;;5001763;28;20231;-17
2022/04/26 17:47:51;;;;;;;6.68;1.75;;;;;;;;;;5003329;28;20228;-17
2022/04/26 17:50:25;;;;;;;2.13;1.75;;;;;;;;;;5004778;28;20223;-17
2022/04/26 17:58:23;;;;;;;2.60;1.63;;;;;;;;;;5002329;28;20228;-17
2022/04/26 18:00:50;;;;;;;3.15;1.90;;;;;;;;;;5004710;28;20236;-17
2022/04/26 18:03:19;;;;;;;2.72;1.70;;;;;;;;;;5003472;28;20383;-17
2022/04/26 18:05:46;;;;;;;4.80;1.70;;;;;;;;;;5001260;28;20233;-17
2022/04/26 18:08:14;;;;;;;2.53;1.83;;;;;;;;;;5000117;28;20232;-17
2022/04/26 18:10:42;;;;;;;3.33;2.00;;;;;;;;;;5004124;28;20997;-17
2022/04/26 18:13:10;;;;;;;1.63;1.48;;;;;;;;;;5000769;28;20240;-16
2022/04/26 18:15:38;;;;;;;2.33;1.60;;;;;;;;;;4997303;28;20236;-16
2022/04/26 18:18:06;;;;;;;2.30;2.00;;;;;;;;;;5003669;28;20231;-17
2022/04/26 18:20:33;;;;;;;4.05;1.90;;;;;;;;;;4999767;28;20582;-17
2022/04/26 18:23:01;;;;;;;2.85;1.55;;;;;;;;;;5001425;28;20239;-16
2022/04/26 18:28:15;;;;;;;2.85;1.58;;;;;;;;;;5000630;28;20374;-16
2022/04/26 18:30:43;;;;;;;2.92;1.88;;;;;;;;;;5004157;28;20236;-17
2022/04/26 18:33:10;;;;;;;2.28;1.65;;;;;;;;;;5000171;28;20424;-16
2022/04/26 18:35:38;;;;;;;1.73;1.63;;;;;;;;;;5000381;28;20228;-17
2022/04/26 18:38:06;;;;;;;2.20;1.73;;;;;;;;;;5003507;28;20234;-16
2022/04/26 18:40:33;;;;;;;1.95;1.40;;;;;;;;;;5003547;28;20246;-16
2022/04/26 18:43:00;;;;;;;5.13;1.77;;;;;;;;;;5001250;28;20243;-16
2022/04/26 18:45:29;;;;;;;2.60;1.70;;;;;;;;;;5006916;28;20228;-16
2022/04/26 18:47:56;;;;;;;2.13;1.90;;;;;;;;;;5003519;28;20232;-16
2022/04/26 18:50:24;;;;;;;1.80;1.60;;;;;;;;;;5001910;28;20231;-16
2022/04/26 18:52:52;;;;;;;2.03;1.70;;;;;;;;;;5001952;28;20230;-16
2022/04/26 18:55:19;;;;;;;2.63;1.60;;;;;;;;;;5006796;28;20706;-17
2022/04/26 18:57:47;;;;;;;2.90;1.70;;;;;;;;;;5001999;28;20329;-16
2022/04/26 19:00:17;;;;;;;3.88;1.60;;;;;;;;;;5001351;28;20314;-16
2022/04/26 19:02:45;;;;;;;3.13;1.90;;;;;;;;;;5003164;28;20227;-16
2022/04/26 19:05:13;;;;;;;2.80;1.60;;;;;;;;;;5000510;28;20778;-17
2022/04/26 19:07:40;;;;;;;2.55;1.55;;;;;;;;;;5003269;28;20236;-16
2022/04/26 19:12:53;;;;;;;2.35;1.80;;;;;;;;;;5001785;28;20234;-16
2022/04/26 19:15:20;;;;;;;2.97;1.50;;;;;;;;;;5002323;28;20216;-16
2022/04/26 19:17:49;;;;;;;2.47;1.83;;;;;;;;;;5002752;28;20262;-16
2022/04/26 19:20:16;;;;;;;5.28;1.75;;;;;;;;;;4999720;28;20609;-19
2022/04/26 19:22:44;;;;;;;2.67;2.13;;;;;;;;;;4998752;28;20240;-19
2022/04/26 19:25:11;;;;;;;2.42;1.90;;;;;;;;;;5003153;28;20303;-19
2022/04/26 19:27:38;;;;;;;2.75;1.77;;;;;;;;;;4999460;28;20357;-17
2022/04/26 19:30:06;;;;;;;2.95;1.73;;;;;;;;;;4999777;28;20231;-17